createdAt,value
2023-05-12T00:01:46.322Z,101969.59
2023-05-12T00:04:12.919Z,101955.94
2023-05-12T00:06:39.447Z,101962.38
2023-05-12T00:09:06.253Z,101974.06
2023-05-12T00:11:32.803Z,101970.38
2023-05-12T00:13:59.364Z,101971.56
2023-05-12T00:16:25.925Z,101964.56
2023-05-12T00:18:52.529Z,101962.41
2023-05-12T00:21:19.141Z,101965.06
2023-05-12T00:23:45.624Z,101967.72
2023-05-12T00:26:12.115Z,101957.56
2023-05-12T00:28:38.582Z,101958.22
2023-05-12T00:31:05.230Z,101955.56
2023-05-12T00:33:31.909Z,101957.56
2023-05-12T00:36:00.491Z,101952.25
2023-05-12T00:38:26.970Z,101945.44
2023-05-12T00:40:53.414Z,101944.78
2023-05-12T00:43:19.868Z,101941.44
2023-05-12T00:45:46.696Z,101953.56
2023-05-12T00:48:13.803Z,101938.13
2023-05-12T00:50:40.619Z,101945.09
2023-05-12T00:53:07.738Z,101942.44
2023-05-12T00:55:34.201Z,101940.91
2023-05-12T00:58:00.701Z,101942.75
2023-05-12T01:00:27.190Z,101938.13
2023-05-12T01:02:54.197Z,101944.44
2023-05-12T01:05:20.856Z,101938.44
2023-05-12T01:07:48.353Z,101941.78
2023-05-12T01:10:21.908Z,101924.28
2023-05-12T01:12:48.806Z,101927.94
2023-05-12T01:15:16.858Z,101924.47
2023-05-12T01:17:50.340Z,101915.97
2023-05-12T01:20:21.077Z,101933.13
2023-05-12T01:22:49.246Z,101916.50
2023-05-12T01:25:17.252Z,101918.16
2023-05-12T01:27:45.751Z,101913.84
2023-05-12T01:30:16.814Z,101908.84
2023-05-12T01:32:43.767Z,101910.19
2023-05-12T01:35:10.490Z,101915.66
2023-05-12T01:37:37.082Z,101916.16
2023-05-12T01:40:04.030Z,101920.50
2023-05-12T01:42:30.577Z,101909.69
2023-05-12T01:44:57.058Z,101911.53
2023-05-12T01:47:23.723Z,101911.53
2023-05-12T01:49:51.119Z,101920.16
2023-05-12T01:52:17.573Z,101912.84
2023-05-12T01:54:44.034Z,101919.50
2023-05-12T01:57:10.469Z,101924.63
2023-05-12T01:59:37.035Z,101926.31
2023-05-12T02:02:03.851Z,101918.84
2023-05-12T02:04:30.387Z,101918.16
2023-05-12T02:06:56.801Z,101922.97
2023-05-12T02:09:23.252Z,101919.81
2023-05-12T02:11:49.880Z,101913.50
2023-05-12T02:14:16.376Z,101917.16
2023-05-12T02:16:42.978Z,101922.97
2023-05-12T02:19:09.575Z,101909.00
2023-05-12T02:21:36.135Z,101915.19
2023-05-12T02:24:02.587Z,101912.84
2023-05-12T02:26:29.020Z,101911.53
2023-05-12T02:28:55.666Z,101907.34
2023-05-12T02:31:22.232Z,101911.53
2023-05-12T02:33:50.732Z,101903.19
2023-05-12T02:36:17.201Z,101901.22
2023-05-12T02:38:43.676Z,101894.22
2023-05-12T02:41:10.131Z,101904.53
2023-05-12T02:43:36.647Z,101901.22
2023-05-12T02:46:03.590Z,101897.69
2023-05-12T02:48:30.164Z,101899.22
2023-05-12T02:50:57.228Z,101901.03
2023-05-12T02:53:23.787Z,101897.56
2023-05-12T02:55:51.070Z,101898.69
2023-05-12T02:58:17.602Z,101900.22
2023-05-12T03:00:44.178Z,101905.53
2023-05-12T03:03:10.916Z,101900.38
2023-05-12T03:05:37.434Z,101911.00
2023-05-12T03:08:04.024Z,101893.56
2023-05-12T03:10:30.825Z,101896.53
2023-05-12T03:12:57.276Z,101895.69
2023-05-12T03:15:23.724Z,101895.56
2023-05-12T03:17:50.166Z,101897.38
2023-05-12T03:20:16.817Z,101896.22
2023-05-12T03:22:43.360Z,101891.22
2023-05-12T03:25:10.381Z,101888.25
2023-05-12T03:27:36.990Z,101894.38
2023-05-12T03:30:05.137Z,101885.25
2023-05-12T03:32:31.798Z,101889.38
2023-05-12T03:34:58.407Z,101878.94
2023-05-12T03:37:24.878Z,101876.94
2023-05-12T03:39:51.383Z,101882.25
2023-05-12T03:42:17.835Z,101883.59
2023-05-12T03:44:44.371Z,101886.06
2023-05-12T03:47:10.932Z,101883.59
2023-05-12T03:49:37.420Z,101874.75
2023-05-12T03:52:04.066Z,101877.09
2023-05-12T03:54:30.821Z,101884.41
2023-05-12T03:56:57.264Z,101879.94
2023-05-12T03:59:23.802Z,101874.94
2023-05-12T04:01:50.550Z,101873.28
2023-05-12T04:04:17.156Z,101880.41
2023-05-12T04:06:43.704Z,101875.63
2023-05-12T04:09:10.521Z,101877.28
2023-05-12T04:11:37.057Z,101872.97
2023-05-12T04:14:03.568Z,101880.59
2023-05-12T04:16:30.085Z,101876.94
2023-05-12T04:18:57.493Z,101879.28
2023-05-12T04:21:24.076Z,101879.09
2023-05-12T04:23:53.773Z,101879.28
2023-05-12T04:26:20.821Z,101892.91
2023-05-12T04:28:47.787Z,101885.59
2023-05-12T04:31:14.274Z,101881.44
2023-05-12T04:33:40.705Z,101886.59
2023-05-12T04:36:07.621Z,101883.59
2023-05-12T04:38:34.161Z,101883.75
2023-05-12T04:41:01.210Z,101899.88
2023-05-12T04:45:59.305Z,101901.22
2023-05-12T04:48:26.773Z,101887.09
2023-05-12T04:50:53.239Z,101892.25
2023-05-12T04:53:19.696Z,101895.25
2023-05-12T04:55:46.261Z,101904.75
2023-05-12T04:58:16.201Z,101911.72
2023-05-12T05:00:43.137Z,101900.22
2023-05-12T05:03:09.924Z,101912.53
2023-05-12T05:05:36.524Z,101924.38
2023-05-12T05:08:03.064Z,101917.38
2023-05-12T05:10:29.558Z,101925.69
2023-05-12T05:12:56.435Z,101919.72
2023-05-12T05:15:23.000Z,101939.50
2023-05-12T05:17:49.851Z,101938.34
2023-05-12T05:20:16.940Z,101945.00
2023-05-12T05:22:43.678Z,101930.16
2023-05-12T05:25:10.925Z,101947.13
2023-05-12T05:27:38.832Z,101935.00
2023-05-12T05:30:08.065Z,101939.00
2023-05-12T05:32:40.276Z,101934.16
2023-05-12T05:35:08.343Z,101944.13
2023-05-12T05:37:34.943Z,101938.66
2023-05-12T05:40:01.426Z,101936.81
2023-05-12T05:42:27.883Z,101931.16
2023-05-12T05:44:54.405Z,101933.81
2023-05-12T05:47:20.898Z,101937.47
2023-05-12T05:49:47.421Z,101941.44
2023-05-12T05:52:13.872Z,101946.44
2023-05-12T05:54:40.308Z,101942.28
2023-05-12T05:57:06.881Z,101953.75
2023-05-12T05:59:33.410Z,101960.94
2023-05-12T06:01:59.912Z,101953.75
2023-05-12T06:04:26.519Z,101970.72
2023-05-12T06:06:53.049Z,101968.72
2023-05-12T06:09:19.477Z,101971.22
2023-05-12T06:11:45.959Z,101968.38
2023-05-12T06:14:12.505Z,101974.03
2023-05-12T06:16:39.619Z,101970.22
2023-05-12T06:19:06.709Z,101976.84
2023-05-12T06:21:33.462Z,101976.19
2023-05-12T06:23:59.907Z,101974.31
2023-05-12T06:26:26.469Z,101987.81
2023-05-12T06:28:52.945Z,101979.97
2023-05-12T06:31:19.488Z,101990.81
2023-05-12T06:33:46.120Z,101980.81
2023-05-12T06:36:12.625Z,101988.41
2023-05-12T06:38:39.185Z,101985.88
2023-05-12T06:41:05.726Z,101989.38
2023-05-12T06:43:32.315Z,101998.72
2023-05-12T06:45:58.807Z,101999.56
2023-05-12T06:48:25.309Z,102006.53
2023-05-12T06:50:51.851Z,102004.53
2023-05-12T06:53:18.343Z,102000.19
2023-05-12T06:55:46.364Z,102013.84
2023-05-12T06:58:12.891Z,102011.16
2023-05-12T07:00:39.354Z,102012.84
2023-05-12T07:03:05.959Z,102008.28
2023-05-12T07:05:32.537Z,102008.59
2023-05-12T07:07:59.219Z,102013.06
2023-05-12T07:10:25.795Z,102014.19
2023-05-12T07:12:52.411Z,102015.34
2023-05-12T07:15:19.348Z,102024.41
2023-05-12T07:17:46.273Z,102019.69
2023-05-12T07:20:12.805Z,102015.31
2023-05-12T07:22:39.327Z,102023.91
2023-05-12T07:25:07.605Z,102025.72
2023-05-12T07:27:34.326Z,102025.44
2023-05-12T07:30:00.821Z,102033.84
2023-05-12T07:32:27.447Z,102026.00
2023-05-12T07:34:55.039Z,102030.78
2023-05-12T07:37:21.526Z,102028.41
2023-05-12T07:39:47.988Z,102033.03
2023-05-12T07:42:14.485Z,102020.81
2023-05-12T07:44:41.477Z,102029.84
2023-05-12T07:47:08.005Z,102035.31
2023-05-12T07:49:34.495Z,102034.97
2023-05-12T07:52:01.334Z,102028.31
2023-05-12T07:54:27.805Z,102037.34
2023-05-12T07:56:54.292Z,102038.16
2023-05-12T07:59:20.876Z,102041.22
2023-05-12T08:01:47.377Z,102045.94
2023-05-12T08:04:13.958Z,102030.81
2023-05-12T08:06:40.667Z,102033.63
2023-05-12T08:09:07.183Z,102037.84
2023-05-12T08:11:33.741Z,102029.91
2023-05-12T08:14:00.734Z,102045.22
2023-05-12T08:16:27.384Z,102038.72
2023-05-12T08:18:53.906Z,102039.63
2023-05-12T08:21:20.391Z,102038.22
2023-05-12T08:23:46.876Z,102044.59
2023-05-12T08:26:13.353Z,102051.66
2023-05-12T08:28:39.916Z,102044.72
2023-05-12T08:31:06.861Z,102047.97
2023-05-12T08:33:36.401Z,102047.28
2023-05-12T08:36:03.096Z,102040.88
2023-05-12T08:38:29.896Z,102051.63
2023-05-12T08:41:11.455Z,102058.38
2023-05-12T08:43:45.106Z,102052.25
2023-05-12T08:46:12.882Z,102057.53
2023-05-12T08:48:40.525Z,102059.91
2023-05-12T08:51:13.052Z,102055.59
2023-05-12T08:53:41.688Z,102066.66
2023-05-12T08:58:42.706Z,102068.34
2023-05-12T09:01:12.169Z,102066.94
2023-05-12T09:03:38.980Z,102065.28
2023-05-12T09:06:06.466Z,102067.81
2023-05-12T09:08:34.963Z,102076.63
2023-05-12T09:11:02.482Z,102072.22
2023-05-12T09:14:04.720Z,102069.25
2023-05-12T09:16:34.491Z,102069.00
2023-05-12T09:19:03.557Z,102068.56
2023-05-12T09:21:31.153Z,102080.56
2023-05-12T09:23:59.889Z,102080.97
2023-05-12T09:26:28.111Z,102079.72
2023-05-12T09:29:06.579Z,102082.59
2023-05-12T09:31:33.199Z,102073.94
2023-05-12T09:34:02.199Z,102077.03
2023-05-12T09:36:28.777Z,102079.09
2023-05-12T09:38:59.768Z,102079.91
2023-05-12T09:41:26.356Z,102089.22
2023-05-12T09:43:53.373Z,102097.91
2023-05-12T09:46:20.311Z,102096.84
2023-05-12T09:48:48.354Z,102091.28
2023-05-12T09:51:20.733Z,102098.34
2023-05-12T09:53:47.212Z,102102.88
2023-05-12T09:56:14.865Z,102096.97
2023-05-12T09:58:49.291Z,102100.97
2023-05-12T10:01:23.458Z,102103.34
2023-05-12T10:03:58.165Z,102096.50
2023-05-12T10:06:33.932Z,102087.38
2023-05-12T10:09:15.498Z,102096.09
2023-05-12T10:11:43.252Z,102105.22
2023-05-12T10:14:11.244Z,102095.28
2023-05-12T10:16:39.199Z,102096.09
2023-05-12T10:19:06.793Z,102104.59
2023-05-12T10:21:33.371Z,102093.19
2023-05-12T10:24:03.641Z,102099.19
2023-05-12T10:26:32.534Z,102097.50
2023-05-12T10:28:59.579Z,102096.06
2023-05-12T10:31:27.988Z,102101.84
2023-05-12T10:34:02.178Z,102089.63
2023-05-12T10:36:29.104Z,102103.47
2023-05-12T10:38:56.402Z,102098.47
2023-05-12T10:41:32.719Z,102094.28
2023-05-12T10:43:59.468Z,102088.47
2023-05-12T10:46:30.168Z,102082.81
2023-05-12T10:49:03.282Z,102097.09
2023-05-12T10:51:35.064Z,102088.34
2023-05-12T10:54:10.191Z,102089.66
2023-05-12T10:56:39.711Z,102098.38
2023-05-12T10:59:20.632Z,102095.88
2023-05-12T11:02:08.119Z,102096.34
2023-05-12T11:04:58.016Z,102103.41
2023-05-12T11:07:31.013Z,102099.00
2023-05-12T11:10:01.840Z,102083.06
2023-05-12T11:12:35.338Z,102096.66
2023-05-12T11:15:03.836Z,102089.53
2023-05-12T11:17:30.802Z,102095.06
2023-05-12T11:19:57.336Z,102098.75
2023-05-12T11:22:24.301Z,102094.81
2023-05-12T11:24:52.977Z,102093.78
2023-05-12T11:27:22.537Z,102091.34
2023-05-12T11:30:01.259Z,102108.06
2023-05-12T11:32:29.412Z,102100.59
2023-05-12T11:34:56.265Z,102100.41
2023-05-12T11:37:23.039Z,102102.31
2023-05-12T11:39:49.603Z,102104.34
2023-05-12T11:42:19.850Z,102099.00
2023-05-12T11:44:49.173Z,102098.41
2023-05-12T11:47:17.235Z,102103.34
2023-05-12T11:49:49.801Z,102108.50
2023-05-12T11:52:17.122Z,102095.00
2023-05-12T11:54:52.110Z,102101.41
2023-05-12T11:57:32.651Z,102097.81
2023-05-12T12:00:04.619Z,102096.28
2023-05-12T12:02:31.606Z,102103.06
2023-05-12T12:04:58.205Z,102104.91
2023-05-12T12:07:35.861Z,102105.97
2023-05-12T12:10:16.731Z,102107.25
2023-05-12T12:12:43.909Z,102103.59
2023-05-12T12:15:11.212Z,102107.84
2023-05-12T12:17:38.575Z,102106.19
2023-05-12T12:20:06.324Z,102109.44
2023-05-12T12:22:34.361Z,102106.03
2023-05-12T12:25:01.817Z,102110.25
2023-05-12T12:27:28.272Z,102104.81
2023-05-12T12:29:54.801Z,102109.28
2023-05-12T12:32:21.302Z,102115.31
2023-05-12T12:34:49.070Z,102110.50
2023-05-12T12:37:16.164Z,102110.22
2023-05-12T12:39:42.819Z,102101.56
2023-05-12T12:42:09.495Z,102103.44
2023-05-12T12:44:36.030Z,102114.19
2023-05-12T12:47:02.605Z,102100.78
2023-05-12T12:49:29.121Z,102106.97
2023-05-12T12:51:56.024Z,102112.53
2023-05-12T12:54:22.661Z,102118.75
2023-05-12T12:56:49.172Z,102114.22
2023-05-12T12:59:15.692Z,102111.75
2023-05-12T13:01:42.900Z,102099.75
2023-05-12T13:04:09.493Z,102111.75
2023-05-12T13:06:36.096Z,102107.34
2023-05-12T13:09:04.005Z,102118.75
2023-05-12T13:11:30.586Z,102104.19
2023-05-12T13:13:57.090Z,102100.03
2023-05-12T13:16:23.622Z,102104.88
2023-05-12T13:18:50.106Z,102110.06
2023-05-12T13:21:18.717Z,102099.00
2023-05-12T13:23:45.369Z,102114.88
2023-05-12T13:26:11.839Z,102124.31
2023-05-12T13:28:38.302Z,102108.53
2023-05-12T13:31:06.117Z,102098.63
2023-05-12T13:33:32.801Z,102098.78
2023-05-12T13:35:59.418Z,102102.28
2023-05-12T13:38:26.424Z,102100.13
2023-05-12T13:40:53.023Z,102096.22
2023-05-12T13:43:19.487Z,102098.25
2023-05-12T13:45:46.003Z,102105.69
2023-05-12T13:48:12.633Z,102089.53
2023-05-12T13:50:39.262Z,102106.19
2023-05-12T13:53:06.529Z,102104.75
2023-05-12T13:55:34.259Z,102099.88
2023-05-12T13:58:00.906Z,102101.09
2023-05-12T14:00:29.706Z,102090.75
2023-05-12T14:02:57.755Z,102084.78
2023-05-12T14:05:24.903Z,102086.59
2023-05-12T14:07:51.430Z,102089.75
2023-05-12T14:10:18.615Z,102089.19
2023-05-12T14:12:45.889Z,102091.16
2023-05-12T14:17:46.282Z,102099.50
2023-05-12T14:20:12.947Z,102091.41
2023-05-12T14:22:39.637Z,102086.22
2023-05-12T14:25:06.485Z,102093.00
2023-05-12T14:27:32.972Z,102089.44
2023-05-12T14:30:00.453Z,102086.00
2023-05-12T14:32:29.280Z,102084.69
2023-05-12T14:34:56.603Z,102089.16
2023-05-12T14:37:23.115Z,102086.69
2023-05-12T14:39:49.584Z,102090.13
2023-05-12T14:42:16.303Z,102083.50
2023-05-12T14:44:42.836Z,102079.00
2023-05-12T14:47:09.380Z,102081.34
2023-05-12T14:49:36.015Z,102087.28
2023-05-12T14:52:02.969Z,102090.84
2023-05-12T14:54:29.558Z,102088.00
2023-05-12T14:56:56.615Z,102079.78
2023-05-12T14:59:23.231Z,102083.56
2023-05-12T15:01:49.997Z,102073.88
2023-05-12T15:04:16.681Z,102080.81
2023-05-12T15:06:43.165Z,102076.81
2023-05-12T15:09:09.724Z,102084.56
2023-05-12T15:11:36.958Z,102078.66
2023-05-12T15:14:04.768Z,102086.78
2023-05-12T15:16:33.032Z,102082.56
2023-05-12T15:18:59.756Z,102078.69
2023-05-12T15:21:26.423Z,102084.94
2023-05-12T15:23:52.900Z,102084.59
2023-05-12T15:26:32.032Z,102083.28
2023-05-12T15:29:00.700Z,102079.59
2023-05-12T15:31:30.376Z,102070.78
2023-05-12T15:33:57.800Z,102078.41
2023-05-12T15:36:24.273Z,102063.41
2023-05-12T15:38:50.777Z,102065.00
2023-05-12T15:41:17.424Z,102075.19
2023-05-12T15:43:43.991Z,102080.47
2023-05-12T15:46:11.665Z,102098.72
2023-05-12T15:48:39.390Z,102105.28
2023-05-12T15:51:06.546Z,102145.28
2023-05-12T15:53:33.116Z,102153.75
2023-05-12T15:56:04.194Z,102162.94
2023-05-12T15:58:31.413Z,102156.34
2023-05-12T16:00:58.238Z,102132.09
2023-05-12T16:03:25.262Z,102125.06
2023-05-12T16:05:52.195Z,102121.34
2023-05-12T16:08:18.844Z,102120.88
2023-05-12T16:10:45.424Z,102115.31
2023-05-12T16:13:11.939Z,102113.63
2023-05-12T16:15:38.457Z,102118.19
2023-05-12T16:18:07.034Z,102128.31
2023-05-12T16:20:35.762Z,102121.28
2023-05-12T16:23:02.565Z,102124.34
2023-05-12T16:25:29.210Z,102121.88
2023-05-12T16:27:55.959Z,102126.63
2023-05-12T16:30:22.463Z,102125.81
2023-05-12T16:32:49.262Z,102125.81
2023-05-12T16:35:15.949Z,102114.03
2023-05-12T16:37:42.681Z,102121.03
2023-05-12T16:40:09.711Z,102117.34
2023-05-12T16:42:36.645Z,102110.50
2023-05-12T16:45:03.258Z,102117.38
2023-05-12T16:47:29.941Z,102119.25
2023-05-12T16:49:58.070Z,102126.72
2023-05-12T16:52:25.436Z,102120.09
2023-05-12T16:54:52.168Z,102120.94
2023-05-12T16:57:18.825Z,102122.97
2023-05-12T16:59:45.478Z,102123.00
2023-05-12T17:02:11.973Z,102136.25
2023-05-12T17:04:38.576Z,102132.72
2023-05-12T17:07:05.335Z,102138.75
2023-05-12T17:09:31.818Z,102125.47
2023-05-12T17:11:58.258Z,102129.63
2023-05-12T17:14:24.843Z,102127.75
2023-05-12T17:16:51.633Z,102138.72
2023-05-12T17:19:18.250Z,102136.03
2023-05-12T17:21:44.717Z,102135.63
2023-05-12T17:24:11.219Z,102125.88
2023-05-12T17:26:37.718Z,102137.06
2023-05-12T17:29:04.396Z,102135.81
2023-05-12T17:31:30.966Z,102143.06
2023-05-12T17:33:57.659Z,102134.19
2023-05-12T17:36:24.252Z,102135.44
2023-05-12T17:38:51.746Z,102138.53
2023-05-12T17:41:19.366Z,102139.56
2023-05-12T17:43:45.916Z,102144.94
2023-05-12T17:46:12.605Z,102148.44
2023-05-12T17:48:39.066Z,102150.09
2023-05-12T17:51:06.345Z,102145.56
2023-05-12T17:53:33.841Z,102148.88
2023-05-12T17:56:00.542Z,102150.75
2023-05-12T17:58:27.503Z,102158.41
2023-05-12T18:00:54.025Z,102156.56
2023-05-12T18:03:24.024Z,102156.78
2023-05-12T18:05:52.388Z,102163.59
2023-05-12T18:08:19.144Z,102159.06
2023-05-12T18:10:46.620Z,102162.56
2023-05-12T18:13:14.608Z,102165.25
2023-05-12T18:15:41.878Z,102172.31
2023-05-12T18:18:09.992Z,102167.72
2023-05-12T18:20:36.661Z,102171.28
2023-05-12T18:23:03.145Z,102169.41
2023-05-12T18:25:29.632Z,102168.38
2023-05-12T18:27:56.133Z,102166.91
2023-05-12T18:30:22.554Z,102174.38
2023-05-12T18:32:49.438Z,102176.41
2023-05-12T18:35:15.949Z,102177.22
2023-05-12T18:37:42.540Z,102182.63
2023-05-12T18:40:09.229Z,102177.00
2023-05-12T18:42:36.079Z,102183.84
2023-05-12T18:45:02.718Z,102188.38
2023-05-12T18:47:29.153Z,102192.09
2023-05-12T18:49:55.650Z,102193.50
2023-05-12T18:52:22.191Z,102190.75
2023-05-12T18:54:49.798Z,102201.06
2023-05-12T18:57:17.046Z,102193.34
2023-05-12T18:59:43.602Z,102200.78
2023-05-12T19:02:10.486Z,102210.66
2023-05-12T19:04:37.423Z,102215.72
2023-05-12T19:07:06.374Z,102226.00
2023-05-12T19:09:32.907Z,102220.50
2023-05-12T19:11:59.561Z,102224.56
2023-05-12T19:14:26.134Z,102233.59
2023-05-12T19:16:52.763Z,102224.00
2023-05-12T19:19:19.255Z,102235.91
2023-05-12T19:21:45.840Z,102223.38
2023-05-12T19:24:12.540Z,102231.56
2023-05-12T19:26:39.038Z,102237.44
2023-05-12T19:29:05.811Z,102242.31
2023-05-12T19:31:34.204Z,102258.97
2023-05-12T19:34:00.819Z,102254.94
2023-05-12T19:36:29.065Z,102261.59
2023-05-12T19:38:59.365Z,102263.56
2023-05-12T19:41:29.690Z,102262.75
2023-05-12T19:43:56.399Z,102262.19
2023-05-12T19:46:23.262Z,102268.56
2023-05-12T19:48:51.010Z,102272.38
2023-05-12T19:51:17.606Z,102268.13
2023-05-12T19:53:44.240Z,102272.19
2023-05-12T19:56:10.720Z,102273.84
2023-05-12T19:58:37.200Z,102276.16
2023-05-12T20:01:03.755Z,102268.28
2023-05-12T20:03:30.322Z,102287.78
2023-05-12T20:05:58.496Z,102285.41
2023-05-12T20:08:24.953Z,102280.31
2023-05-12T20:10:51.411Z,102285.94
2023-05-12T20:13:17.959Z,102284.94
2023-05-12T20:15:44.533Z,102296.09
2023-05-12T20:18:12.662Z,102290.72
2023-05-12T20:20:39.288Z,102295.06
2023-05-12T20:23:05.780Z,102293.63
2023-05-12T20:25:33.111Z,102297.59
2023-05-12T20:27:59.840Z,102303.31
2023-05-12T20:30:26.776Z,102303.69
2023-05-12T20:32:53.439Z,102301.19
2023-05-12T20:35:20.727Z,102300.53
2023-05-12T20:37:47.447Z,102312.91
2023-05-12T20:40:14.165Z,102303.78
2023-05-12T20:42:40.688Z,102306.47
2023-05-12T20:45:07.734Z,102307.09
2023-05-12T20:47:35.051Z,102316.16
2023-05-12T20:50:05.474Z,102308.50
2023-05-12T20:52:42.084Z,102311.72
2023-05-12T20:55:09.747Z,102313.09
2023-05-12T20:57:37.560Z,102322.44
2023-05-12T21:00:04.566Z,102319.47
2023-05-12T21:02:31.150Z,102317.00
2023-05-12T21:04:57.694Z,102327.06
2023-05-12T21:07:24.185Z,102321.22
2023-05-12T21:09:50.701Z,102319.09
2023-05-12T21:12:17.348Z,102320.13
2023-05-12T21:14:45.162Z,102332.50
2023-05-12T21:17:12.084Z,102332.00
2023-05-12T21:19:39.967Z,102333.94
2023-05-12T21:22:07.569Z,102339.97
2023-05-12T21:24:34.177Z,102338.81
2023-05-12T21:27:04.578Z,102336.34
2023-05-12T21:29:32.008Z,102338.38
2023-05-12T21:31:58.598Z,102341.41
2023-05-12T21:34:25.198Z,102340.75
2023-05-12T21:36:52.139Z,102339.75
2023-05-12T21:39:18.625Z,102347.94
2023-05-12T21:41:45.169Z,102344.25
2023-05-12T21:44:11.742Z,102337.78
2023-05-12T21:46:38.416Z,102339.97
2023-05-12T21:49:05.140Z,102350.22
2023-05-12T21:51:34.988Z,102348.56
2023-05-12T21:54:01.965Z,102355.91
2023-05-12T21:56:28.479Z,102350.09
2023-05-12T21:58:55.637Z,102353.94
2023-05-12T22:01:22.112Z,102348.94
2023-05-12T22:03:48.736Z,102362.16
2023-05-12T22:06:15.333Z,102366.69
2023-05-12T22:08:42.334Z,102363.53
2023-05-12T22:11:08.988Z,102364.56
2023-05-12T22:13:35.440Z,102368.03
2023-05-12T22:16:03.913Z,102359.66
2023-05-12T22:18:30.504Z,102363.34
2023-05-12T22:20:57.054Z,102359.50
2023-05-12T22:23:23.580Z,102369.00
2023-05-12T22:25:50.249Z,102370.00
2023-05-12T22:28:16.796Z,102363.84
2023-05-12T22:30:43.282Z,102369.00
2023-05-12T22:33:09.931Z,102376.22
2023-05-12T22:35:36.506Z,102373.69
2023-05-12T22:38:03.081Z,102375.25
2023-05-12T22:40:30.728Z,102382.28
2023-05-12T22:42:57.260Z,102389.47
2023-05-12T22:45:25.170Z,102385.78
2023-05-12T22:47:51.637Z,102383.09
2023-05-12T22:50:18.734Z,102378.75
2023-05-12T22:52:45.428Z,102384.75
2023-05-12T22:55:11.940Z,102382.44
2023-05-12T22:57:43.667Z,102380.41
2023-05-12T23:00:10.571Z,102375.72
2023-05-12T23:02:37.139Z,102375.72
2023-05-12T23:05:04.233Z,102381.06
2023-05-12T23:07:31.080Z,102380.25
2023-05-12T23:09:57.717Z,102380.25
2023-05-12T23:12:24.203Z,102379.75
2023-05-12T23:14:50.722Z,102385.13
2023-05-12T23:17:17.192Z,102375.97
2023-05-12T23:19:43.677Z,102376.78
2023-05-12T23:22:10.112Z,102373.81
2023-05-12T23:24:36.598Z,102380.81
2023-05-12T23:27:03.434Z,102377.50
2023-05-12T23:29:30.155Z,102372.69
2023-05-12T23:31:58.707Z,102379.34
2023-05-12T23:34:25.590Z,102384.50
2023-05-12T23:36:52.045Z,102377.50
2023-05-12T23:39:18.587Z,102365.47
2023-05-12T23:41:45.634Z,102380.06
2023-05-12T23:44:12.745Z,102366.53
2023-05-12T23:46:39.350Z,102369.88
2023-05-12T23:49:06.245Z,102370.22
2023-05-12T23:51:32.881Z,102379.09
2023-05-12T23:53:59.331Z,102373.59
2023-05-12T23:56:25.866Z,102373.31
2023-05-12T23:58:52.305Z,102369.31
